Central Sierra Snow Lab Weather observations

Data are for 10 minute period ending at time listed.
 Day   Time    Incoming  Reflected   Ave.   Ave.    Ave.    Vector  Max.    Ave.    Total    Snow   
  of    of      Solar     Solar      Air    Rel.    Wind    Wind    Wind   Baro.   Precip.   Depth  
Year   Day     Radiation Radiation   Temp.  Humid.  Speed   Dir.    Gust   Press.                   
2017   (PST)    Kw/m2     Kw/m2       F       %      mph     deg.    mph     mb.     in.      in.   
----------------------------------------------------------------------------------------------------
 203   14:20    0.836     999.000     82.4     21     3.4     193     8.1   795.20   10.09   -4.00  
 203   14:30    0.828     999.000     81.8     21     3.1     253     7.4   795.30   10.09   -4.10  
 203   14:40    0.795     999.000     81.8     21     2.2     249     6.1   795.30   10.09   -4.10  
 203   14:50    0.771     999.000     81.9     20     2.6     208     6.7   795.30   10.09   -4.10  
 203   15:00    0.746     999.000     81.7     22     2.8     198     6.7   795.20   10.09   -4.10  
 203   15:10    0.724     999.000     81.9     22     2.3     208     5.6   795.20   10.09   -4.00  
 203   15:20    0.697     999.000     82.1     22     2.5     217     7.5   795.10   10.09   -4.00  
 203   15:30    0.668     999.000     82.5     20     2.2     241     5.9   795.00   10.09   -4.10  
 203   15:40    0.638     999.000     82.5     22     1.9     233     4.9   795.00   10.10   -4.10  
 203   15:50    0.608     999.000     82.2     23     2.2     224     9.4   794.90   10.09   -4.10  
 203   16:00    0.582     999.000     80.8     25     3.1     185     6.8   795.00   10.09   -3.90  
 203   16:10    0.552     999.000     80.3     26     2.8     192     7.3   795.10   10.09   -3.90  
 203   16:20    0.523     999.000     79.9     26     2.9     201     6.1   795.20   10.09   -3.90  
 203   16:30    0.457     999.000     80.3     27     2.2     207     5.8   795.10   10.09   -3.90  
 203   16:40    0.113     999.000     80.4     26     1.9     215     6.1   795.10   10.09   -3.90  
 203   16:50    0.277     999.000     80.7     27     1.8     215     5.4   795.10   10.09   -3.90  
 203   17:00    0.322     999.000     80.5     26     2.5     244     5.7   795.00   10.09   -4.10  
 203   17:10    0.373     999.000     80.2     27     1.8     263     5.5   795.00   10.09   -4.00  
 203   17:20    0.342     999.000     79.5     27     2.7     239     6.9   794.90   10.10   -3.90  
 203   17:30    0.314     999.000     79.3     27     1.2     204     3.7   795.00   10.09   -4.10  
 203   17:40    0.283     999.000     79.2     29     1.7     206     4.1   795.00   10.09   -4.10  
 203   17:50    0.126     999.000     78.3     28     2.0     221     5.9   795.00   10.09   -3.90  
 203   18:00    0.120     999.000     78.5     28     0.9     202     3.0   795.10   10.09   -4.00  
 203   18:10    0.188     999.000     79.0     30     0.5     203     2.7   795.10   10.09   -3.90  
 203   18:20    0.086     999.000     77.3     31     0.7     199     3.1   795.20   10.09   -3.70  
 203   18:30    0.088     999.000     76.0     34     0.8     183     3.0   795.10   10.09   -3.70  
 203   18:40    0.052     999.000     74.9     37     0.3      71     1.8   795.20   10.09   -3.80  
 203   18:50    0.018     999.000     73.8     40     0.9     292     2.9   795.30   10.09   -3.60  
 203   19:00    0.014     999.000     72.2     44     1.1     295     4.6   795.30   10.09   -3.50  
 203   19:10    0.010     999.000     70.4     50     1.6      30     2.6   795.40   10.09   -3.40  
 203   19:20    0.006     999.000     68.3     55     1.8      34     2.8   795.40   10.09   -3.30  
 203   19:30    0.003     999.000     67.0     59     2.1      30     3.0   795.30   10.09   -3.20  
 203   19:40    0.001     999.000     65.7     62     2.4      23     3.6   795.30   10.09   -3.30  
 203   19:50    0.000     999.000     64.7     64     2.1      21     3.4   795.40   10.09   -3.20  
 203   20:00    0.000     999.000     63.9     65     1.9      20     3.2   795.50   10.09   -3.20  
 203   20:10    0.000     999.000     63.1     66     2.2      26     3.6   795.60   10.09   -3.20  
 203   20:20    0.000     999.000     62.5     67     2.2      26     2.8   795.60   10.09   -3.10  
 203   20:30    0.000     999.000     61.8     67     1.6      33     2.6   795.70   10.09   -3.20  
 203   20:40    0.000     999.000     61.3     66     2.6      25     3.6   795.80   10.09   -3.20  
 203   20:50    0.000     999.000     60.5     63     3.2      28     4.2   795.80   10.10   -3.20  
 203   21:00    0.000     999.000     59.8     63     2.1      36     3.3   795.90   10.09   -3.20  
 203   21:10    0.000     999.000     59.4     65     2.7      28     3.4   795.90   10.09   -3.20  
 203   21:20    0.000     999.000     59.0     65     2.0      32     3.2   795.90   10.09   -3.10  
 203   21:30    0.000     999.000     58.5     60     2.7      32     3.6   795.90   10.09   -3.20  
 203   21:40    0.000     999.000     58.1     59     1.3      40     2.6   795.80   10.09   -3.10  
 203   21:50    0.000     999.000     57.7     58     1.3      34     1.8   795.80   10.09   -3.10  
 203   22:00    0.000     999.000     57.4     56     1.8      35     3.4   795.80   10.09   -3.10  
 203   22:10    0.000     999.000     57.0     53     1.4      45     2.1   795.80   10.09   -3.00  
 203   22:20    0.000     999.000     56.9     52     1.4      44     1.7   795.80   10.09   -3.00  
 203   22:30    0.000     999.000     56.6     51     2.1      36     3.2   795.80   10.10   -3.10  
 203   22:40    0.000     999.000     56.4     50     2.1      37     3.8   795.80   10.10   -3.10  
 203   22:50    0.000     999.000     56.1     49     1.7      40     3.2   795.70   10.09   20.70  
 203   23:00    0.000     999.000     56.0     48     1.6      33     3.0   795.70   10.10   164.40  
 203   23:10    0.000     999.000     55.8     49     2.2      36     3.5   795.70   10.10   164.40  
 203   23:20    0.000     999.000     55.5     48     2.0      35     3.0   795.70   10.10   164.40  
 203   23:30    0.000     999.000     55.2     50     2.2      33     2.9   795.60   10.10   36.10  
 203   23:40    0.000     999.000     55.1     50     1.7      33     2.5   795.60   10.10   -3.00  
 203   23:50    0.000     999.000     54.9     53     3.1      31     4.0   795.50   10.10   -3.00  
 204    0:00    0.000     999.000     54.8     54     1.5      37     3.2   795.50   10.10   -3.00  
 204    0:10    0.000     999.000     54.7     53     1.4      38     2.5   795.40   10.10   -3.00  
 204    0:20    0.000     999.000     54.6     55     1.6      36     2.5   795.40   10.10   -3.10  
 204    0:30    0.000     999.000     54.5     55     2.0      34     3.0   795.40   10.10   -3.00  
 204    0:40    0.000     999.000     54.3     55     1.7      34     2.9   795.40   10.10   -3.10  
 204    0:50    0.000     999.000     54.3     58     2.9      31     3.9   795.40   10.10   -3.10  
 204    1:00    0.000     999.000     54.2     59     3.6      28     4.2   795.30   10.10   -3.10  
 204    1:10    0.000     999.000     54.0     58     2.3      29     4.0   795.30   10.10   -3.10  
 204    1:20    0.000     999.000     53.7     59     2.3      30     3.4   795.20   10.10   -3.10  
 204    1:30    0.000     999.000     53.3     59     1.8      40     2.9   795.10   10.10   -3.00  
 204    1:40    0.000     999.000     53.2     57     2.2      31     2.9   795.00   10.11   -3.00  
 204    1:50    0.000     999.000     53.1     55     1.7      42     2.3   795.00   10.10   -3.00  
 204    2:00    0.000     999.000     52.9     56     2.9      30     3.7   794.90   10.10   -3.10  
 204    2:10    0.000     999.000     52.7     56     2.7      32     4.0   794.80   10.10   -3.10  
 204    2:20    0.000     999.000     52.5     56     2.0      34     3.1   794.80   10.10   -3.00  
 204    2:30    0.000     999.000     52.4     56     3.7      25     4.3   794.80   10.10   -3.00  
 204    2:40    0.000     999.000     52.3     55     3.9      29     4.8   794.80   10.10   -3.10  
 204    2:50    0.000     999.000     52.1     56     4.3      29     5.2   794.80   10.10   -3.10  
 204    3:00    0.000     999.000     51.9     57     3.4      33     4.7   794.80   10.10   -3.10  
 204    3:10    0.000     999.000     51.8     57     3.8      27     5.1   794.90   10.10   -3.10  
 204    3:20    0.000     999.000     51.6     57     3.4      31     4.9   794.90   10.10   -3.00  
 204    3:30    0.000     999.000     51.5     58     4.5      28     4.9   794.90   10.10   -3.00  
 204    3:40    0.000     999.000     51.4     58     2.7      35     4.3   794.90   10.09   -3.00  
 204    3:50    0.000     999.000     51.2     59     1.9      37     3.9   794.90   10.09   -3.00  
 204    4:00    0.000     999.000     51.2     61     2.5      33     3.6   794.80   10.10   -3.00  
 204    4:10    0.000     999.000     51.2     62     3.5      28     4.3   794.80   10.10   -3.00  
 204    4:20    0.000     999.000     51.0     63     3.6      27     4.6   794.80   10.10   -3.10  
 204    4:30    0.000     999.000     51.0     64     3.9      27     4.4   794.90   10.10   -3.10  
 204    4:40    0.000     999.000     51.0     64     4.0      29     4.4   794.90   10.10   -3.10  
 204    4:50    0.001     999.000     50.8     65     1.9      33     3.3   794.80   10.09   -3.00  
 204    5:00    0.002     999.000     50.7     66     2.3      33     3.7   794.80   10.09   -2.90  
 204    5:10    0.004     999.000     50.7     66     3.4      32     4.1   794.80   10.09   -3.00  
 204    5:20    0.007     999.000     50.8     66     3.3      30     3.9   794.80   10.10   -3.00  
 204    5:30    0.010     999.000     50.8     66     3.8      28     4.3   794.80   10.10   -3.10  
 204    5:40    0.012     999.000     50.9     68     2.6      32     3.7   794.80   10.10   -3.10  
 204    5:50    0.014     999.000     50.9     70     3.6      28     4.7   794.90   10.10   -3.10  
 204    6:00    0.016     999.000     51.2     70     3.6      31     4.5   794.90   10.09   -3.10  
 204    6:10    0.019     999.000     51.6     72     1.4      46     2.8   794.90   10.10   -2.90  
 204    6:20    0.021     999.000     52.1     76     1.4      45     3.3   794.90   10.10   -3.00  
 204    6:30    0.113     999.000     52.9     76     1.2      58     2.2   794.80   10.09   -2.90  
 204    6:40    0.168     999.000     54.4     75     1.0      60     1.4   794.90   10.10   -3.00  
 204    6:50    0.239     999.000     56.5     72     1.1      28     2.5   794.90   10.10   -3.20  
 204    7:00    0.186     999.000     58.0     70     0.9      28     2.1   794.90   10.09   -3.50  
 204    7:10    0.303     999.000     60.7     66     1.2      30     1.8   795.00   10.10   -3.50  
 204    7:20    0.341     999.000     63.0     62     0.0      30     0.5   795.10   10.10   -3.50  
 204    7:30    0.999     999.000    999.0    999   999.0     999   999.0   999.00   999.00   999.00  
 204    7:40    0.384     999.000     65.8     57     0.3      30     1.7   795.10   10.10   -3.80  
 204    7:50    0.449     999.000     66.8     54     0.0       0     0.0   795.00   10.10   -4.30  
 204    8:00    0.478     999.000     69.0     42     0.0     208     0.7   795.00   10.09   -4.70  
 204    8:10    0.460     999.000     70.9     39     0.1     119     1.5   795.00   10.09   -5.00  
 204    8:20    0.404     999.000     71.9     39     0.3     203     1.6   795.00   10.08   -4.70  
 204    8:30    0.244     999.000     71.9     39     0.3     276     2.2   795.00   10.08   -4.50  
 204    8:40    0.203     999.000     70.1     44     0.2     351     1.3   794.90   10.08   -4.40  
 204    8:50    0.462     999.000     69.6     42     0.5     345     2.5   794.80   10.08   -4.20  
 204    9:00    0.255     999.000     71.3     37     0.6     252     3.5   794.80   10.08   -4.10  
 204    9:10    0.443     999.000     71.3     37     0.8     309     2.7   794.80   10.08   -4.20  
 204    9:20    0.714     999.000     72.3     36     1.1     239     4.0   794.80   10.09   -4.20  
 204    9:30    0.580     999.000     73.2     31     1.2     173     3.3   794.80   10.09   -4.50  
 204    9:40    0.554     999.000     73.6     30     1.2     273     4.0   794.70   10.09   -4.50  
 204    9:50    0.759     999.000     74.4     30     2.0     241     4.9   794.70   10.09   -4.40  
 204   10:00    0.596     999.000     74.2     28     2.8     296     5.4   794.70   10.09   -4.30  
 204   10:10    0.779     999.000     74.7     31     1.9     209     5.0   794.70   10.09   -4.20  
 204   10:20    0.639     999.000     75.6     31     2.2     210     5.0   794.70   10.09   -4.20  
 204   10:30    0.803     999.000     75.2     31     2.6     194     6.0   794.70   10.09   -4.10  
 204   10:40    0.860     999.000     75.7     30     2.6     210     7.4   794.70   10.09   -4.30  
 204   10:50    0.864     999.000     76.5     28     2.8     240     6.7   794.60   10.09   -4.30  
 204   11:00    0.874     999.000     77.0     28     1.9     225     5.4   794.70   10.09   -4.40  
 204   11:10    0.884     999.000     77.8     27     2.0     250     6.6   794.60   10.09   -4.50  
 204   11:20    0.898     999.000     77.3     26     2.7     220     6.8   794.50   10.09   -4.20  
 204   11:30    0.909     999.000     78.5     24     2.4     226     6.8   794.40   10.09   -4.20  
 204   11:40    0.918     999.000     78.6     23     3.3     232     8.3   794.50   10.09   -4.20  
 204   11:50    0.906     999.000     78.7     22     2.8     223     9.6   794.50   10.09   -4.10  
 204   12:00    0.892     999.000     79.1     21     3.0     217     6.6   794.40   10.09   -4.20  
 204   12:10    0.925     999.000     79.8     21     2.7     219     7.6   794.30   10.09   -4.30  
 204   12:20    0.926     999.000     79.6     21     3.4     215     7.9   794.30   10.09   -4.30  
 204   12:30    0.925     999.000     79.8     21     3.2     216     7.7   794.20   10.09   -4.10  
 204   12:40    0.927     999.000     80.1     21     2.7     224     7.3   794.20   10.09   -4.30  
 204   12:50    0.927     999.000     80.0     22     2.9     246     8.2   794.10   10.10   -4.30  
 204   13:00    0.921     999.000     79.9     22     2.7     226     6.6   794.10   10.09   -4.10  
 204   13:10    0.918     999.000     80.1     22     2.7     229     6.0   794.10   10.09   -4.10  
 204   13:20    0.911     999.000     80.2     21     3.1     238     6.4   793.90   10.09   -4.00  
 204   13:30    0.906     999.000     79.7     22     3.7     205     8.2   794.00   10.10   -4.00  
 204   13:40    0.887     999.000     80.4     22     3.1     206     6.2   793.90   10.09   -3.90  
 204   13:50    0.879     999.000     80.7     22     3.0     210     7.9   793.80   10.09   -4.00  
 204   14:00    0.865     999.000     80.4     20     3.3     226    10.3   793.70   10.09   -4.00  
 204   14:10    0.852     999.000     80.2     21     3.1     231     7.9   793.70   10.09   -4.00  

Return to Central Sierra Snow Lab graphs page.


Western Regional Climate Center,wrcc@dri.edu